AFR718 LFPG-GOBD
Flight info
| Callsign | AFR718 |
|---|---|
| Flight time | N/A |
| Altitude | 40000 |
| Route | AGOPA DCT ARKIP DCT ARMAL DCT ARTAX DCT BEBIX DCT LMG DCT UVELI DCT OSMOB DCT VAVIX DCT NETUK N857 GARVU N10 BANEV N857 BAN N10 CJN L27 NASOS N869 MGA M985 PIMOS N869 GALTO UN869 ADM UR975 SAKLI SAKLI1A |
| Aircraft | B772/H-SDE2E3FGHIJ5LORVWXY/LB1D1 |
Departure
| Time | N/A |
|---|---|
| Airport | Charles de Gaulle International Airport (LFPG) |
Arrival
| Time | 2026-04-26 11:59 |
|---|---|
| Airport | Blaise Diagne International Airport (GOBD) |
| Time | Latitude | Longitude | Altitude | Speed | Heading |
|---|---|---|---|---|---|
| 2026-04-26 09:52 | 27.27706 | -10.68456 | 39908 ft | 442 kts | 205° |
| 2026-04-26 09:52 | 27.19094 | -10.72139 | 39922 ft | 439 kts | 205° |
| 2026-04-26 09:53 | 27.13393 | -10.74575 | 39924 ft | 438 kts | 206° |
| 2026-04-26 09:53 | 27.07695 | -10.77008 | 39929 ft | 437 kts | 206° |
| 2026-04-26 09:54 | 27.02040 | -10.79420 | 39929 ft | 437 kts | 206° |
| 2026-04-26 09:54 | 26.96342 | -10.81847 | 39941 ft | 438 kts | 206° |
| 2026-04-26 09:55 | 26.90637 | -10.84274 | 39941 ft | 438 kts | 206° |
| 2026-04-26 09:55 | 26.84932 | -10.86699 | 39946 ft | 439 kts | 206° |
| 2026-04-26 09:56 | 26.79217 | -10.89125 | 39948 ft | 439 kts | 206° |
| 2026-04-26 09:56 | 26.73496 | -10.91551 | 39956 ft | 439 kts | 206° |
| 2026-04-26 09:57 | 26.67784 | -10.93971 | 39957 ft | 439 kts | 206° |
| 2026-04-26 09:57 | 26.62098 | -10.96376 | 39958 ft | 439 kts | 206° |
| 2026-04-26 09:58 | 26.56377 | -10.98795 | 39964 ft | 439 kts | 206° |
| 2026-04-26 09:58 | 26.50667 | -11.01205 | 39968 ft | 438 kts | 206° |
| 2026-04-26 09:59 | 26.45922 | -11.03207 | 39968 ft | 438 kts | 206° |
| 2026-04-26 09:59 | 26.39288 | -11.06002 | 39974 ft | 437 kts | 206° |
| 2026-04-26 10:00 | 26.33597 | -11.08398 | 39975 ft | 437 kts | 206° |
| 2026-04-26 10:00 | 26.27905 | -11.10791 | 39987 ft | 436 kts | 206° |
| 2026-04-26 10:01 | 26.22217 | -11.13180 | 39981 ft | 436 kts | 206° |
| 2026-04-26 10:01 | 26.16542 | -11.15560 | 39993 ft | 435 kts | 206° |
| 2026-04-26 10:02 | 26.10875 | -11.17937 | 39985 ft | 435 kts | 206° |
| 2026-04-26 10:02 | 26.05237 | -11.20298 | 39994 ft | 435 kts | 206° |
| 2026-04-26 10:03 | 25.99565 | -11.22670 | 39990 ft | 435 kts | 206° |
| 2026-04-26 10:03 | 25.93896 | -11.25039 | 39992 ft | 435 kts | 206° |
| 2026-04-26 10:04 | 25.88225 | -11.27406 | 39993 ft | 435 kts | 206° |
| 2026-04-26 10:04 | 25.82588 | -11.29757 | 39988 ft | 435 kts | 206° |
| 2026-04-26 10:05 | 25.76917 | -11.32119 | 39998 ft | 435 kts | 206° |
| 2026-04-26 10:05 | 25.71242 | -11.34481 | 39991 ft | 435 kts | 206° |
| 2026-04-26 10:06 | 25.66524 | -11.36442 | 39991 ft | 435 kts | 206° |
| 2026-04-26 10:06 | 25.59915 | -11.39187 | 39989 ft | 436 kts | 206° |
| 2026-04-26 10:07 | 25.55186 | -11.41150 | 39994 ft | 436 kts | 206° |
| 2026-04-26 10:07 | 25.49495 | -11.43509 | 39991 ft | 436 kts | 206° |
| 2026-04-26 10:08 | 25.43805 | -11.45865 | 39992 ft | 436 kts | 206° |
| 2026-04-26 10:08 | 25.38162 | -11.48200 | 39994 ft | 436 kts | 206° |
| 2026-04-26 10:09 | 25.32438 | -11.50566 | 39997 ft | 436 kts | 206° |
| 2026-04-26 10:09 | 25.26781 | -11.52903 | 39989 ft | 437 kts | 207° |
| 2026-04-26 10:10 | 25.21083 | -11.55250 | 39994 ft | 437 kts | 206° |
| 2026-04-26 10:10 | 25.15321 | -11.57468 | 39993 ft | 438 kts | 205° |
| 2026-04-26 10:11 | 25.09531 | -11.59622 | 39993 ft | 438 kts | 205° |
| 2026-04-26 10:11 | 25.03785 | -11.61770 | 40000 ft | 438 kts | 205° |
| 2026-04-26 10:12 | 24.98010 | -11.63942 | 39995 ft | 438 kts | 205° |
| 2026-04-26 10:12 | 24.92219 | -11.66123 | 39993 ft | 438 kts | 206° |
| 2026-04-26 10:13 | 24.86482 | -11.68283 | 39997 ft | 438 kts | 206° |
| 2026-04-26 10:13 | 24.80710 | -11.70453 | 39996 ft | 439 kts | 206° |
| 2026-04-26 10:14 | 24.74934 | -11.72623 | 39997 ft | 439 kts | 206° |
| 2026-04-26 10:14 | 24.69152 | -11.74793 | 39996 ft | 439 kts | 206° |
| 2026-04-26 10:15 | 24.63372 | -11.76960 | 39999 ft | 439 kts | 206° |
| 2026-04-26 10:15 | 24.57592 | -11.79124 | 39995 ft | 439 kts | 206° |
| 2026-04-26 10:16 | 24.51796 | -11.81293 | 40001 ft | 439 kts | 206° |
| 2026-04-26 10:16 | 24.46047 | -11.83442 | 39998 ft | 439 kts | 206° |
| 2026-04-26 10:17 | 24.40257 | -11.85604 | 39998 ft | 439 kts | 206° |
| 2026-04-26 10:17 | 24.34465 | -11.87765 | 39999 ft | 439 kts | 206° |
| 2026-04-26 10:18 | 24.28673 | -11.89923 | 40001 ft | 440 kts | 206° |
| 2026-04-26 10:18 | 24.22878 | -11.92081 | 40000 ft | 440 kts | 206° |
| 2026-04-26 10:19 | 24.17080 | -11.94238 | 40001 ft | 440 kts | 206° |
| 2026-04-26 10:19 | 24.11278 | -11.96394 | 40001 ft | 440 kts | 206° |
| 2026-04-26 10:20 | 24.05515 | -11.98534 | 39999 ft | 440 kts | 206° |
| 2026-04-26 10:20 | 23.99717 | -12.00684 | 39999 ft | 440 kts | 206° |
| 2026-04-26 10:21 | 23.93913 | -12.02835 | 40000 ft | 440 kts | 206° |
| 2026-04-26 10:21 | 23.88110 | -12.04984 | 39998 ft | 440 kts | 206° |
| 2026-04-26 10:22 | 23.82303 | -12.07131 | 40006 ft | 440 kts | 206° |
| 2026-04-26 10:22 | 23.76495 | -12.09278 | 40000 ft | 441 kts | 206° |
| 2026-04-26 10:23 | 23.70686 | -12.11422 | 40008 ft | 441 kts | 206° |
| 2026-04-26 10:23 | 23.64904 | -12.13555 | 40003 ft | 441 kts | 206° |
| 2026-04-26 10:24 | 23.59087 | -12.15699 | 40002 ft | 441 kts | 206° |
| 2026-04-26 10:24 | 23.53274 | -12.17840 | 40000 ft | 441 kts | 206° |
| 2026-04-26 10:25 | 23.47462 | -12.19978 | 39999 ft | 441 kts | 206° |
| 2026-04-26 10:25 | 23.41639 | -12.22119 | 39999 ft | 441 kts | 206° |
| 2026-04-26 10:26 | 23.35827 | -12.24257 | 39998 ft | 441 kts | 206° |
| 2026-04-26 10:26 | 23.30009 | -12.26396 | 39999 ft | 441 kts | 206° |
| 2026-04-26 10:27 | 23.24224 | -12.28521 | 40001 ft | 441 kts | 206° |
| 2026-04-26 10:27 | 23.18395 | -12.30660 | 40001 ft | 441 kts | 206° |
| 2026-04-26 10:28 | 23.12572 | -12.32795 | 40001 ft | 442 kts | 206° |
| 2026-04-26 10:28 | 23.06744 | -12.34930 | 39996 ft | 442 kts | 206° |
| 2026-04-26 10:29 | 23.00916 | -12.37064 | 39994 ft | 442 kts | 206° |
| 2026-04-26 10:29 | 22.95080 | -12.39198 | 39993 ft | 442 kts | 206° |
| 2026-04-26 10:30 | 22.89286 | -12.41315 | 40006 ft | 442 kts | 206° |
| 2026-04-26 10:30 | 22.83445 | -12.43447 | 40002 ft | 443 kts | 206° |
| 2026-04-26 10:31 | 22.77602 | -12.45579 | 39991 ft | 443 kts | 206° |
| 2026-04-26 10:31 | 22.71633 | -12.47419 | 39990 ft | 448 kts | 202° |
| 2026-04-26 10:32 | 22.65576 | -12.49042 | 39990 ft | 449 kts | 202° |
| 2026-04-26 10:32 | 22.59509 | -12.50664 | 39989 ft | 449 kts | 202° |
| 2026-04-26 10:33 | 22.53472 | -12.52292 | 39980 ft | 450 kts | 202° |
| 2026-04-26 10:33 | 22.47399 | -12.53938 | 39983 ft | 450 kts | 202° |
| 2026-04-26 10:34 | 22.41315 | -12.55587 | 39980 ft | 450 kts | 202° |
| 2026-04-26 10:34 | 22.35223 | -12.57237 | 39979 ft | 451 kts | 202° |
| 2026-04-26 10:35 | 22.29169 | -12.58875 | 39981 ft | 451 kts | 202° |
| 2026-04-26 10:35 | 22.23072 | -12.60522 | 39974 ft | 451 kts | 202° |
| 2026-04-26 10:36 | 22.16971 | -12.62169 | 39978 ft | 452 kts | 202° |
| 2026-04-26 10:36 | 22.10860 | -12.63818 | 39972 ft | 452 kts | 202° |
| 2026-04-26 10:37 | 22.04787 | -12.65454 | 39975 ft | 452 kts | 202° |
| 2026-04-26 10:37 | 21.98676 | -12.67100 | 39975 ft | 453 kts | 202° |
| 2026-04-26 10:38 | 21.92551 | -12.68748 | 39976 ft | 454 kts | 202° |
| 2026-04-26 10:38 | 21.86413 | -12.70398 | 39966 ft | 454 kts | 202° |
| 2026-04-26 10:39 | 21.80279 | -12.72045 | 39970 ft | 455 kts | 202° |
| 2026-04-26 10:39 | 21.74129 | -12.73695 | 39963 ft | 455 kts | 202° |
| 2026-04-26 10:40 | 21.68020 | -12.75333 | 39964 ft | 455 kts | 202° |
| 2026-04-26 10:40 | 21.61869 | -12.76980 | 39973 ft | 455 kts | 202° |
| 2026-04-26 10:41 | 21.55714 | -12.78627 | 39971 ft | 456 kts | 202° |
| 2026-04-26 10:41 | 21.49558 | -12.80273 | 39961 ft | 456 kts | 202° |
| 2026-04-26 10:42 | 21.43422 | -12.81912 | 39960 ft | 456 kts | 202° |
| 2026-04-26 10:42 | 21.37256 | -12.83558 | 39957 ft | 456 kts | 202° |
| 2026-04-26 10:43 | 21.31120 | -12.85195 | 39961 ft | 456 kts | 202° |
| 2026-04-26 10:43 | 21.24934 | -12.86843 | 39956 ft | 457 kts | 202° |
| 2026-04-26 10:44 | 21.18761 | -12.88486 | 39959 ft | 457 kts | 202° |
| 2026-04-26 10:44 | 21.12583 | -12.90130 | 39954 ft | 457 kts | 202° |
| 2026-04-26 10:45 | 21.06443 | -12.91761 | 39954 ft | 457 kts | 202° |
| 2026-04-26 10:45 | 21.00261 | -12.93403 | 39953 ft | 458 kts | 202° |
| 2026-04-26 10:46 | 20.94067 | -12.95047 | 39952 ft | 458 kts | 202° |
| 2026-04-26 10:46 | 20.87866 | -12.96691 | 39943 ft | 459 kts | 202° |
| 2026-04-26 10:47 | 20.81662 | -12.98334 | 39947 ft | 459 kts | 202° |
| 2026-04-26 10:47 | 20.75451 | -12.99978 | 39954 ft | 460 kts | 202° |
| 2026-04-26 10:48 | 20.69257 | -13.01616 | 39936 ft | 461 kts | 202° |
| 2026-04-26 10:48 | 20.63017 | -13.03264 | 39940 ft | 462 kts | 201° |
| 2026-04-26 10:49 | 20.56779 | -13.04911 | 39933 ft | 462 kts | 201° |
| 2026-04-26 10:49 | 20.50752 | -13.07037 | 39941 ft | 450 kts | 212° |
| 2026-04-26 10:50 | 20.46203 | -13.09645 | 39932 ft | 443 kts | 220° |
| 2026-04-26 10:50 | 20.40408 | -13.14137 | 39932 ft | 439 kts | 223° |
| 2026-04-26 10:51 | 20.33044 | -13.20000 | 39917 ft | 441 kts | 223° |
| 2026-04-26 10:52 | 20.28130 | -13.23875 | 39921 ft | 442 kts | 223° |
| 2026-04-26 10:52 | 20.23171 | -13.27766 | 39914 ft | 443 kts | 223° |
| 2026-04-26 10:53 | 20.18204 | -13.31655 | 39915 ft | 443 kts | 223° |
| 2026-04-26 10:53 | 20.13266 | -13.35519 | 39909 ft | 443 kts | 223° |
| 2026-04-26 10:54 | 20.05804 | -13.41352 | 39910 ft | 444 kts | 223° |
| 2026-04-26 10:54 | 20.00814 | -13.45251 | 39906 ft | 444 kts | 223° |
| 2026-04-26 10:55 | 19.95827 | -13.49144 | 39906 ft | 445 kts | 223° |
| 2026-04-26 10:55 | 19.91674 | -13.52383 | 39907 ft | 445 kts | 223° |
| 2026-04-26 10:56 | 19.86677 | -13.56277 | 39909 ft | 445 kts | 223° |
| 2026-04-26 10:56 | 19.81677 | -13.60171 | 39906 ft | 446 kts | 223° |
| 2026-04-26 10:57 | 19.76669 | -13.64067 | 39908 ft | 446 kts | 222° |
| 2026-04-26 10:57 | 19.71688 | -13.67941 | 39902 ft | 447 kts | 222° |
| 2026-04-26 10:58 | 19.66673 | -13.71836 | 39907 ft | 447 kts | 222° |
| 2026-04-26 10:58 | 19.61640 | -13.75744 | 39902 ft | 448 kts | 222° |
| 2026-04-26 10:59 | 19.56604 | -13.79650 | 39904 ft | 448 kts | 222° |
| 2026-04-26 10:59 | 19.51565 | -13.83556 | 39900 ft | 449 kts | 222° |
| 2026-04-26 11:00 | 19.46513 | -13.87468 | 39895 ft | 450 kts | 222° |
| 2026-04-26 11:00 | 19.41455 | -13.91382 | 39899 ft | 450 kts | 222° |
| 2026-04-26 11:01 | 19.36425 | -13.95271 | 39895 ft | 451 kts | 222° |
| 2026-04-26 11:01 | 19.31360 | -13.99185 | 39894 ft | 451 kts | 222° |
| 2026-04-26 11:02 | 19.26284 | -14.03103 | 39892 ft | 451 kts | 222° |
| 2026-04-26 11:02 | 19.21204 | -14.07021 | 39896 ft | 452 kts | 222° |
| 2026-04-26 11:03 | 19.16125 | -14.10936 | 39894 ft | 452 kts | 222° |
| 2026-04-26 11:03 | 19.11042 | -14.14851 | 39892 ft | 452 kts | 222° |
| 2026-04-26 11:04 | 19.05961 | -14.18761 | 39885 ft | 452 kts | 222° |
| 2026-04-26 11:04 | 19.00885 | -14.22664 | 39890 ft | 451 kts | 221° |
| 2026-04-26 11:05 | 18.95807 | -14.26566 | 39888 ft | 451 kts | 221° |
| 2026-04-26 11:05 | 18.90762 | -14.30440 | 39884 ft | 450 kts | 221° |
| 2026-04-26 11:06 | 18.85688 | -14.34332 | 39883 ft | 450 kts | 221° |
| 2026-04-26 11:06 | 18.80625 | -14.38214 | 39880 ft | 449 kts | 221° |
| 2026-04-26 11:07 | 18.75563 | -14.42092 | 39882 ft | 449 kts | 221° |
| 2026-04-26 11:07 | 18.70515 | -14.45956 | 39880 ft | 448 kts | 221° |
| 2026-04-26 11:08 | 18.65497 | -14.49794 | 39877 ft | 448 kts | 221° |
| 2026-04-26 11:08 | 18.60448 | -14.53654 | 39892 ft | 447 kts | 221° |
| 2026-04-26 11:09 | 18.55410 | -14.57502 | 39875 ft | 447 kts | 221° |
| 2026-04-26 11:09 | 18.50372 | -14.61347 | 39876 ft | 447 kts | 221° |
| 2026-04-26 11:10 | 18.45332 | -14.65190 | 39890 ft | 446 kts | 221° |
| 2026-04-26 11:10 | 18.40330 | -14.69003 | 39892 ft | 446 kts | 221° |
| 2026-04-26 11:11 | 18.35291 | -14.72840 | 39881 ft | 446 kts | 221° |
| 2026-04-26 11:11 | 18.30257 | -14.76670 | 39884 ft | 446 kts | 221° |
| 2026-04-26 11:12 | 18.25218 | -14.80503 | 39882 ft | 446 kts | 221° |
| 2026-04-26 11:12 | 18.20179 | -14.84332 | 39887 ft | 446 kts | 221° |
| 2026-04-26 11:13 | 18.15148 | -14.88151 | 39885 ft | 446 kts | 221° |
| 2026-04-26 11:13 | 18.10113 | -14.91972 | 39883 ft | 446 kts | 221° |
| 2026-04-26 11:14 | 18.05161 | -14.95720 | 39893 ft | 428 kts | 221° |
| 2026-04-26 11:14 | 18.00418 | -14.99310 | 39892 ft | 419 kts | 221° |
| 2026-04-26 11:15 | 17.95666 | -15.02919 | 39890 ft | 423 kts | 221° |
| 2026-04-26 11:15 | 17.90870 | -15.06551 | 39887 ft | 426 kts | 221° |
| 2026-04-26 11:16 | 17.86034 | -15.10209 | 39890 ft | 429 kts | 221° |
| 2026-04-26 11:16 | 17.81202 | -15.13858 | 39869 ft | 434 kts | 221° |
| 2026-04-26 11:17 | 17.76252 | -15.17595 | 39891 ft | 442 kts | 221° |
| 2026-04-26 11:17 | 17.71209 | -15.21396 | 39902 ft | 450 kts | 221° |
| 2026-04-26 11:18 | 17.66100 | -15.25244 | 39898 ft | 453 kts | 220° |
| 2026-04-26 11:18 | 17.60962 | -15.29113 | 39894 ft | 454 kts | 220° |
| 2026-04-26 11:19 | 17.55857 | -15.32960 | 39891 ft | 453 kts | 220° |
| 2026-04-26 11:19 | 17.50743 | -15.36813 | 39896 ft | 451 kts | 220° |
| 2026-04-26 11:20 | 17.46507 | -15.40003 | 39899 ft | 450 kts | 220° |
| 2026-04-26 11:20 | 17.40610 | -15.44440 | 39891 ft | 447 kts | 220° |
| 2026-04-26 11:21 | 17.35554 | -15.48243 | 39897 ft | 446 kts | 220° |
| 2026-04-26 11:21 | 17.30525 | -15.52023 | 39899 ft | 445 kts | 220° |
| 2026-04-26 11:22 | 17.25493 | -15.55802 | 39900 ft | 445 kts | 220° |
| 2026-04-26 11:22 | 17.20461 | -15.59579 | 39902 ft | 445 kts | 220° |
| 2026-04-26 11:23 | 17.15421 | -15.63360 | 39902 ft | 446 kts | 220° |
| 2026-04-26 11:23 | 17.10407 | -15.67117 | 39907 ft | 447 kts | 220° |
| 2026-04-26 11:24 | 17.05344 | -15.70912 | 39909 ft | 447 kts | 220° |
| 2026-04-26 11:24 | 17.00280 | -15.74708 | 39913 ft | 448 kts | 220° |
| 2026-04-26 11:25 | 16.95204 | -15.78510 | 39910 ft | 449 kts | 220° |
| 2026-04-26 11:25 | 16.90128 | -15.82310 | 39912 ft | 449 kts | 220° |
| 2026-04-26 11:26 | 16.85057 | -15.86104 | 39922 ft | 450 kts | 220° |
| 2026-04-26 11:26 | 16.79956 | -15.89917 | 39921 ft | 450 kts | 220° |
| 2026-04-26 11:27 | 16.74854 | -15.93729 | 39917 ft | 450 kts | 220° |
| 2026-04-26 11:27 | 16.69793 | -15.97507 | 39917 ft | 450 kts | 220° |
| 2026-04-26 11:28 | 16.64696 | -16.01311 | 39927 ft | 450 kts | 220° |
| 2026-04-26 11:28 | 16.59595 | -16.05115 | 39911 ft | 450 kts | 220° |
| 2026-04-26 11:29 | 16.54498 | -16.08914 | 39927 ft | 450 kts | 220° |
| 2026-04-26 11:29 | 16.49400 | -16.12708 | 39930 ft | 450 kts | 220° |
| 2026-04-26 11:30 | 16.45165 | -16.15854 | 39926 ft | 450 kts | 220° |
| 2026-04-26 11:30 | 16.39199 | -16.20283 | 39927 ft | 450 kts | 220° |
| 2026-04-26 11:31 | 16.34139 | -16.24039 | 39928 ft | 450 kts | 220° |
| 2026-04-26 11:31 | 16.31548 | -16.25962 | 39718 ft | 452 kts | 220° |
| 2026-04-26 11:31 | 16.28994 | -16.27856 | 39477 ft | 450 kts | 220° |
| 2026-04-26 11:32 | 16.26472 | -16.29725 | 39208 ft | 450 kts | 220° |
| 2026-04-26 11:32 | 16.23913 | -16.31623 | 38855 ft | 452 kts | 220° |
| 2026-04-26 11:32 | 16.21344 | -16.33527 | 38330 ft | 455 kts | 220° |
| 2026-04-26 11:32 | 16.18758 | -16.35444 | 37790 ft | 457 kts | 220° |
| 2026-04-26 11:33 | 16.16162 | -16.37366 | 37244 ft | 458 kts | 220° |
| 2026-04-26 11:33 | 16.13567 | -16.39287 | 36719 ft | 458 kts | 220° |
| 2026-04-26 11:33 | 16.10967 | -16.41211 | 36212 ft | 459 kts | 220° |
| 2026-04-26 11:33 | 16.08358 | -16.43141 | 35713 ft | 461 kts | 220° |
| 2026-04-26 11:34 | 16.05724 | -16.45091 | 35230 ft | 468 kts | 220° |
| 2026-04-26 11:34 | 16.02984 | -16.46989 | 34742 ft | 476 kts | 216° |
| 2026-04-26 11:34 | 16.00089 | -16.48710 | 34277 ft | 481 kts | 213° |
| 2026-04-26 11:34 | 15.97155 | -16.50326 | 33787 ft | 483 kts | 213° |
| 2026-04-26 11:35 | 15.94172 | -16.51932 | 33269 ft | 484 kts | 213° |
| 2026-04-26 11:35 | 15.91185 | -16.53552 | 32739 ft | 486 kts | 213° |
| 2026-04-26 11:35 | 15.88187 | -16.55204 | 32253 ft | 487 kts | 213° |
| 2026-04-26 11:35 | 15.86216 | -16.56304 | 31916 ft | 485 kts | 213° |
| 2026-04-26 11:36 | 15.82256 | -16.58534 | 31245 ft | 482 kts | 214° |
| 2026-04-26 11:36 | 15.79320 | -16.60198 | 30755 ft | 479 kts | 214° |
| 2026-04-26 11:36 | 15.76398 | -16.61857 | 30287 ft | 477 kts | 214° |
| 2026-04-26 11:36 | 15.73493 | -16.63507 | 29765 ft | 475 kts | 214° |
| 2026-04-26 11:37 | 15.70592 | -16.65153 | 29215 ft | 473 kts | 214° |
| 2026-04-26 11:37 | 15.67718 | -16.66782 | 28669 ft | 470 kts | 214° |
| 2026-04-26 11:37 | 15.64854 | -16.68403 | 28145 ft | 467 kts | 213° |
| 2026-04-26 11:37 | 15.62010 | -16.70012 | 27614 ft | 463 kts | 213° |
| 2026-04-26 11:38 | 15.59229 | -16.71584 | 27104 ft | 459 kts | 213° |
| 2026-04-26 11:38 | 15.56436 | -16.73163 | 26597 ft | 455 kts | 213° |
| 2026-04-26 11:38 | 15.53672 | -16.74726 | 26106 ft | 450 kts | 213° |
| 2026-04-26 11:38 | 15.50925 | -16.76278 | 25613 ft | 446 kts | 213° |
| 2026-04-26 11:39 | 15.48213 | -16.77811 | 25140 ft | 443 kts | 213° |
| 2026-04-26 11:39 | 15.45514 | -16.79336 | 24663 ft | 439 kts | 212° |
| 2026-04-26 11:39 | 15.42833 | -16.80850 | 24206 ft | 436 kts | 212° |
| 2026-04-26 11:39 | 15.40177 | -16.82350 | 23743 ft | 433 kts | 212° |
| 2026-04-26 11:40 | 15.37539 | -16.83840 | 23244 ft | 430 kts | 212° |
| 2026-04-26 11:40 | 15.34923 | -16.85316 | 22700 ft | 427 kts | 212° |
| 2026-04-26 11:40 | 15.32326 | -16.86779 | 22177 ft | 423 kts | 211° |
| 2026-04-26 11:40 | 15.29634 | -16.88001 | 21632 ft | 423 kts | 200° |
| 2026-04-26 11:41 | 15.26784 | -16.88740 | 21138 ft | 421 kts | 196° |
| 2026-04-26 11:42 | 15.08204 | -16.93049 | 17893 ft | 402 kts | 196° |
| 2026-04-26 11:43 | 15.05493 | -16.93714 | 17348 ft | 397 kts | 196° |
| 2026-04-26 11:43 | 15.02821 | -16.94369 | 16875 ft | 391 kts | 196° |
| 2026-04-26 11:43 | 15.00220 | -16.95006 | 16424 ft | 384 kts | 196° |
| 2026-04-26 11:43 | 14.96775 | -16.95850 | 15839 ft | 377 kts | 195° |
| 2026-04-26 11:44 | 14.95088 | -16.96263 | 15544 ft | 373 kts | 195° |
| 2026-04-26 11:44 | 14.92580 | -16.96875 | 15123 ft | 368 kts | 195° |
| 2026-04-26 11:44 | 14.90077 | -16.97315 | 14694 ft | 362 kts | 186° |
| 2026-04-26 11:44 | 14.87567 | -16.97337 | 14324 ft | 358 kts | 180° |
| 2026-04-26 11:45 | 14.85101 | -16.97230 | 13987 ft | 352 kts | 179° |
| 2026-04-26 11:45 | 14.82672 | -16.97135 | 13624 ft | 346 kts | 180° |
| 2026-04-26 11:45 | 14.80286 | -16.97085 | 13239 ft | 340 kts | 181° |
| 2026-04-26 11:45 | 14.77941 | -16.97058 | 12861 ft | 335 kts | 181° |
| 2026-04-26 11:46 | 14.75627 | -16.97038 | 12491 ft | 330 kts | 181° |
| 2026-04-26 11:46 | 14.73344 | -16.97019 | 12116 ft | 326 kts | 181° |
| 2026-04-26 11:46 | 14.71119 | -16.96999 | 11745 ft | 321 kts | 181° |
| 2026-04-26 11:46 | 14.68897 | -16.96979 | 11385 ft | 317 kts | 181° |
| 2026-04-26 11:47 | 14.66703 | -16.96960 | 11028 ft | 313 kts | 181° |
| 2026-04-26 11:47 | 14.64537 | -16.96941 | 10681 ft | 310 kts | 181° |
| 2026-04-26 11:47 | 14.62391 | -16.96922 | 10324 ft | 307 kts | 181° |
| 2026-04-26 11:47 | 14.60306 | -16.96903 | 9951 ft | 292 kts | 181° |
| 2026-04-26 11:48 | 14.58316 | -16.96885 | 9572 ft | 279 kts | 181° |
| 2026-04-26 11:48 | 14.56409 | -16.96867 | 9175 ft | 268 kts | 181° |
| 2026-04-26 11:48 | 14.54577 | -16.96851 | 8807 ft | 261 kts | 181° |
| 2026-04-26 11:48 | 14.52766 | -16.96837 | 8496 ft | 260 kts | 181° |
| 2026-04-26 11:49 | 14.50984 | -16.96821 | 8198 ft | 259 kts | 181° |
| 2026-04-26 11:49 | 14.49180 | -16.96804 | 7885 ft | 260 kts | 181° |
| 2026-04-26 11:49 | 14.47373 | -16.96787 | 7586 ft | 259 kts | 181° |
| 2026-04-26 11:49 | 14.45569 | -16.96773 | 7269 ft | 259 kts | 181° |
| 2026-04-26 11:50 | 14.43763 | -16.96758 | 6978 ft | 258 kts | 181° |
| 2026-04-26 11:50 | 14.41980 | -16.96741 | 6742 ft | 254 kts | 181° |
| 2026-04-26 11:50 | 14.40258 | -16.96841 | 6592 ft | 242 kts | 196° |
| 2026-04-26 11:50 | 14.38837 | -16.97677 | 6338 ft | 234 kts | 228° |
| 2026-04-26 11:51 | 14.38000 | -16.99084 | 6098 ft | 229 kts | 250° |
| 2026-04-26 11:51 | 14.37705 | -17.00678 | 5851 ft | 225 kts | 268° |
| 2026-04-26 11:51 | 14.37678 | -17.02257 | 5617 ft | 221 kts | 271° |
| 2026-04-26 11:51 | 14.37756 | -17.03816 | 5350 ft | 214 kts | 284° |
| 2026-04-26 11:52 | 14.38384 | -17.05181 | 5128 ft | 210 kts | 306° |
| 2026-04-26 11:52 | 14.39347 | -17.06306 | 4884 ft | 208 kts | 308° |
| 2026-04-26 11:52 | 14.40298 | -17.07403 | 4616 ft | 207 kts | 326° |
| 2026-04-26 11:52 | 14.41684 | -17.07783 | 4387 ft | 213 kts | 2° |
| 2026-04-26 11:53 | 14.43140 | -17.07502 | 4158 ft | 214 kts | 7° |
| 2026-04-26 11:53 | 14.44602 | -17.07295 | 4077 ft | 210 kts | 5° |
| 2026-04-26 11:53 | 14.46057 | -17.07150 | 3929 ft | 212 kts | 1° |
| 2026-04-26 11:54 | 14.48929 | -17.07111 | 3434 ft | 201 kts | 358° |
| 2026-04-26 11:54 | 14.50291 | -17.07120 | 3162 ft | 190 kts | 357° |
| 2026-04-26 11:54 | 14.51557 | -17.07138 | 2948 ft | 175 kts | 358° |
| 2026-04-26 11:54 | 14.52721 | -17.07145 | 2740 ft | 163 kts | 358° |
| 2026-04-26 11:55 | 14.53832 | -17.07156 | 2525 ft | 156 kts | 358° |
| 2026-04-26 11:55 | 14.54876 | -17.07168 | 2316 ft | 143 kts | 359° |
| 2026-04-26 11:55 | 14.55814 | -17.07176 | 2163 ft | 129 kts | 0° |
| 2026-04-26 11:55 | 14.56712 | -17.07183 | 1999 ft | 130 kts | 0° |
| 2026-04-26 11:56 | 14.57607 | -17.07192 | 1813 ft | 128 kts | 0° |
| 2026-04-26 11:56 | 14.58518 | -17.07200 | 1662 ft | 133 kts | 359° |
| 2026-04-26 11:56 | 14.59435 | -17.07209 | 1455 ft | 130 kts | 359° |
| 2026-04-26 11:56 | 14.60327 | -17.07234 | 1284 ft | 127 kts | 0° |
| 2026-04-26 11:57 | 14.61212 | -17.07228 | 1100 ft | 128 kts | 1° |
| 2026-04-26 11:57 | 14.62103 | -17.07224 | 993 ft | 129 kts | 359° |
| 2026-04-26 11:57 | 14.63010 | -17.07247 | 806 ft | 128 kts | 359° |
| 2026-04-26 11:57 | 14.63877 | -17.07251 | 631 ft | 124 kts | 359° |
| 2026-04-26 11:58 | 14.64739 | -17.07260 | 458 ft | 124 kts | 358° |
| 2026-04-26 11:58 | 14.65599 | -17.07269 | 314 ft | 127 kts | 358° |
| 2026-04-26 11:58 | 14.66449 | -17.07279 | 269 ft | 110 kts | 0° |
| 2026-04-26 11:58 | 14.67096 | -17.07282 | 272 ft | 80 kts | 359° |
| 2026-04-26 11:59 | 14.67492 | -17.07287 | 267 ft | 37 kts | 360° |
| 2026-04-26 11:59 | 14.67710 | -17.07241 | 267 ft | 15 kts | 25° |
| 2026-04-26 11:59 | 14.67795 | -17.07194 | 267 ft | 10 kts | 30° |
| 2026-04-26 11:59 | 14.67834 | -17.07139 | 268 ft | 10 kts | 89° |
| 2026-04-26 12:00 | 14.67783 | -17.07099 | 270 ft | 10 kts | 173° |
| 2026-04-26 12:00 | 14.67712 | -17.07097 | 271 ft | 10 kts | 179° |
| 2026-04-26 12:00 | 14.67641 | -17.07096 | 271 ft | 10 kts | 180° |
| 2026-04-26 12:00 | 14.67570 | -17.07096 | 270 ft | 10 kts | 180° |
| 2026-04-26 12:01 | 14.67501 | -17.07095 | 270 ft | 10 kts | 179° |
| 2026-04-26 12:01 | 14.67430 | -17.07094 | 270 ft | 10 kts | 178° |
| 2026-04-26 12:01 | 14.67359 | -17.07093 | 270 ft | 10 kts | 180° |
| 2026-04-26 12:01 | 14.67288 | -17.07094 | 271 ft | 10 kts | 180° |
| 2026-04-26 12:02 | 14.67218 | -17.07092 | 272 ft | 10 kts | 179° |
| 2026-04-26 12:02 | 14.67147 | -17.07091 | 272 ft | 10 kts | 179° |
| 2026-04-26 12:02 | 14.67087 | -17.07062 | 272 ft | 10 kts | 121° |
| 2026-04-26 12:02 | 14.67078 | -17.06996 | 276 ft | 7 kts | 90° |
| 2026-04-26 12:03 | 14.67078 | -17.06949 | 276 ft | 7 kts | 89° |
| 2026-04-26 12:03 | 14.67079 | -17.06902 | 276 ft | 5 kts | 89° |
| 2026-04-26 12:03 | 14.67079 | -17.06880 | 276 ft | 3 kts | 89° |
| 2026-04-26 12:03 | 14.67079 | -17.06868 | 276 ft | 0 kts | 89° |